sensor_id;sensor_type;location;lat;lon;timestamp;pressure;altitude;pressure_sealevel;temperature;humidity
19831;BME280;10076;52.008;4.708;2023-07-28T00:00:33;100522.81;;;20.68;100.00
19831;BME280;10076;52.008;4.708;2023-07-28T00:02:58;100529.38;;;20.65;100.00
19831;BME280;10076;52.008;4.708;2023-07-28T00:05:24;100523.00;;;20.66;100.00
19831;BME280;10076;52.008;4.708;2023-07-28T00:07:49;100528.25;;;20.82;100.00
19831;BME280;10076;52.008;4.708;2023-07-28T00:10:14;100527.97;;;20.77;100.00
19831;BME280;10076;52.008;4.708;2023-07-28T00:12:40;100523.72;;;20.83;100.00
19831;BME280;10076;52.008;4.708;2023-07-28T00:15:05;100532.97;;;20.80;100.00
19831;BME280;10076;52.008;4.708;2023-07-28T00:17:31;100521.44;;;20.72;100.00
19831;BME280;10076;52.008;4.708;2023-07-28T00:19:56;100525.38;;;20.83;100.00
19831;BME280;10076;52.008;4.708;2023-07-28T00:22:22;100522.59;;;20.77;100.00
19831;BME280;10076;52.008;4.708;2023-07-28T00:24:47;100525.09;;;20.79;100.00
19831;BME280;10076;52.008;4.708;2023-07-28T00:27:12;100522.28;;;20.72;100.00
19831;BME280;10076;52.008;4.708;2023-07-28T00:29:40;100525.47;;;20.76;100.00
19831;BME280;10076;52.008;4.708;2023-07-28T00:32:06;100524.72;;;20.59;100.00
19831;BME280;10076;52.008;4.708;2023-07-28T00:34:32;100530.34;;;20.72;100.00
19831;BME280;10076;52.008;4.708;2023-07-28T00:36:57;100529.66;;;20.78;100.00
19831;BME280;10076;52.008;4.708;2023-07-28T00:39:23;100528.25;;;20.82;100.00
19831;BME280;10076;52.008;4.708;2023-07-28T00:41:48;100525.78;;;20.73;100.00
19831;BME280;10076;52.008;4.708;2023-07-28T00:44:13;100532.63;;;20.83;100.00
19831;BME280;10076;52.008;4.708;2023-07-28T00:46:41;100529.03;;;20.90;100.00
19831;BME280;10076;52.008;4.708;2023-07-28T00:49:06;100528.00;;;20.91;100.00
19831;BME280;10076;52.008;4.708;2023-07-28T00:51:32;100531.75;;;21.05;100.00
19831;BME280;10076;52.008;4.708;2023-07-28T00:53:57;100527.53;;;20.88;100.00
19831;BME280;10076;52.008;4.708;2023-07-28T00:56:24;100537.94;;;20.91;100.00
19831;BME280;10076;52.008;4.708;2023-07-28T00:58:50;100530.75;;;20.83;100.00
19831;BME280;10076;52.008;4.708;2023-07-28T01:01:16;100530.28;;;20.80;100.00
19831;BME280;10076;52.008;4.708;2023-07-28T01:03:42;100539.75;;;20.90;100.00
19831;BME280;10076;52.008;4.708;2023-07-28T01:06:29;100527.47;;;20.96;100.00
19831;BME280;10076;52.008;4.708;2023-07-28T01:09:06;100532.25;;;20.86;100.00
19831;BME280;10076;52.008;4.708;2023-07-28T01:11:34;100533.16;;;20.79;100.00
19831;BME280;10076;52.008;4.708;2023-07-28T01:14:00;100534.97;;;21.00;100.00
19831;BME280;10076;52.008;4.708;2023-07-28T01:16:26;100535.41;;;20.89;100.00
19831;BME280;10076;52.008;4.708;2023-07-28T01:18:51;100541.19;;;21.01;100.00
19831;BME280;10076;52.008;4.708;2023-07-28T01:21:20;100532.63;;;20.83;100.00
19831;BME280;10076;52.008;4.708;2023-07-28T01:24:14;100539.28;;;20.87;100.00
19831;BME280;10076;52.008;4.708;2023-07-28T01:26:41;100529.88;;;20.91;100.00
19831;BME280;10076;52.008;4.708;2023-07-28T01:29:07;100539.50;;;21.00;100.00
19831;BME280;10076;52.008;4.708;2023-07-28T01:31:33;100534.53;;;20.97;100.00
19831;BME280;10076;52.008;4.708;2023-07-28T01:33:58;100540.91;;;20.96;100.00
19831;BME280;10076;52.008;4.708;2023-07-28T01:36:24;100532.69;;;21.12;100.00
19831;BME280;10076;52.008;4.708;2023-07-28T01:38:49;100530.44;;;21.01;100.00
19831;BME280;10076;52.008;4.708;2023-07-28T01:41:15;100532.94;;;21.02;100.00
19831;BME280;10076;52.008;4.708;2023-07-28T01:43:40;100527.19;;;20.91;100.00
19831;BME280;10076;52.008;4.708;2023-07-28T01:46:07;100534.19;;;20.92;100.00
19831;BME280;10076;52.008;4.708;2023-07-28T01:48:32;100539.13;;;21.03;100.00
19831;BME280;10076;52.008;4.708;2023-07-28T01:50:58;100530.16;;;20.96;100.00
19831;BME280;10076;52.008;4.708;2023-07-28T01:53:23;100536.06;;;20.91;100.00
19831;BME280;10076;52.008;4.708;2023-07-28T01:55:49;100540.97;;;20.88;100.00
19831;BME280;10076;52.008;4.708;2023-07-28T01:58:14;100540.25;;;20.94;100.00
19831;BME280;10076;52.008;4.708;2023-07-28T02:00:39;100544.63;;;21.09;100.00
19831;BME280;10076;52.008;4.708;2023-07-28T02:03:05;100535.63;;;21.02;100.00
19831;BME280;10076;52.008;4.708;2023-07-28T02:05:31;100528.50;;;20.95;100.00
19831;BME280;10076;52.008;4.708;2023-07-28T02:07:57;100523.00;;;20.88;100.00
19831;BME280;10076;52.008;4.708;2023-07-28T02:10:23;100527.09;;;20.99;100.00
19831;BME280;10076;52.008;4.708;2023-07-28T02:12:49;100538.72;;;21.14;100.00
19831;BME280;10076;52.008;4.708;2023-07-28T02:15:15;100535.44;;;21.04;100.00
19831;BME280;10076;52.008;4.708;2023-07-28T02:17:41;100527.31;;;21.12;100.00
19831;BME280;10076;52.008;4.708;2023-07-28T02:20:06;100532.13;;;21.02;100.00
19831;BME280;10076;52.008;4.708;2023-07-28T02:22:36;100533.50;;;21.12;100.00
19831;BME280;10076;52.008;4.708;2023-07-28T02:25:01;100526.28;;;20.98;100.00
19831;BME280;10076;52.008;4.708;2023-07-28T02:27:27;100524.84;;;20.88;100.00
19831;BME280;10076;52.008;4.708;2023-07-28T02:29:53;100529.16;;;20.97;100.00
19831;BME280;10076;52.008;4.708;2023-07-28T02:32:18;100527.88;;;21.22;100.00
19831;BME280;10076;52.008;4.708;2023-07-28T02:34:43;100524.72;;;21.18;100.00
19831;BME280;10076;52.008;4.708;2023-07-28T02:37:09;100526.81;;;21.31;100.00
19831;BME280;10076;52.008;4.708;2023-07-28T02:39:34;100531.59;;;21.21;100.00
19831;BME280;10076;52.008;4.708;2023-07-28T02:42:00;100528.00;;;21.28;100.00
19831;BME280;10076;52.008;4.708;2023-07-28T02:44:26;100536.03;;;21.14;100.00
19831;BME280;10076;52.008;4.708;2023-07-28T02:46:51;100540.22;;;21.16;100.00
19831;BME280;10076;52.008;4.708;2023-07-28T02:49:17;100541.13;;;21.23;100.00
19831;BME280;10076;52.008;4.708;2023-07-28T02:51:43;100538.41;;;21.09;100.00
19831;BME280;10076;52.008;4.708;2023-07-28T02:54:08;100542.31;;;21.21;100.00
19831;BME280;10076;52.008;4.708;2023-07-28T02:56:33;100542.91;;;21.16;100.00
19831;BME280;10076;52.008;4.708;2023-07-28T02:59:02;100541.47;;;21.06;100.00
19831;BME280;10076;52.008;4.708;2023-07-28T03:01:29;100550.34;;;21.06;100.00
19831;BME280;10076;52.008;4.708;2023-07-28T03:03:58;100548.66;;;20.91;100.00
19831;BME280;10076;52.008;4.708;2023-07-28T03:06:24;100546.00;;;20.91;100.00
19831;BME280;10076;52.008;4.708;2023-07-28T03:08:50;100555.91;;;21.05;100.00
19831;BME280;10076;52.008;4.708;2023-07-28T03:11:15;100550.97;;;20.94;100.00
19831;BME280;10076;52.008;4.708;2023-07-28T03:13:40;100555.88;;;20.90;100.00
19831;BME280;10076;52.008;4.708;2023-07-28T03:16:06;100558.03;;;20.95;100.00
19831;BME280;10076;52.008;4.708;2023-07-28T03:18:31;100560.22;;;20.91;100.00
19831;BME280;10076;52.008;4.708;2023-07-28T03:20:56;100565.88;;;20.74;100.00
19831;BME280;10076;52.008;4.708;2023-07-28T03:23:22;100562.44;;;20.88;100.00
19831;BME280;10076;52.008;4.708;2023-07-28T03:25:48;100562.09;;;20.91;100.00
19831;BME280;10076;52.008;4.708;2023-07-28T03:28:14;100554.31;;;20.96;100.00
19831;BME280;10076;52.008;4.708;2023-07-28T03:30:39;100553.44;;;20.81;100.00
19831;BME280;10076;52.008;4.708;2023-07-28T03:33:04;100558.69;;;20.97;100.00
19831;BME280;10076;52.008;4.708;2023-07-28T03:35:30;100553.94;;;20.99;100.00
19831;BME280;10076;52.008;4.708;2023-07-28T03:37:55;100560.19;;;20.99;100.00
19831;BME280;10076;52.008;4.708;2023-07-28T03:40:21;100562.44;;;20.88;100.00
19831;BME280;10076;52.008;4.708;2023-07-28T03:42:48;100565.31;;;20.86;100.00
19831;BME280;10076;52.008;4.708;2023-07-28T03:45:13;100560.84;;;20.79;100.00
19831;BME280;10076;52.008;4.708;2023-07-28T03:47:39;100570.19;;;20.83;100.00
19831;BME280;10076;52.008;4.708;2023-07-28T03:50:05;100571.50;;;20.87;100.00
19831;BME280;10076;52.008;4.708;2023-07-28T03:52:31;100577.94;;;21.00;100.00
19831;BME280;10076;52.008;4.708;2023-07-28T03:54:56;100571.75;;;21.00;100.00
19831;BME280;10076;52.008;4.708;2023-07-28T03:57:21;100571.97;;;21.13;100.00
19831;BME280;10076;52.008;4.708;2023-07-28T03:59:47;100579.34;;;21.11;100.00
19831;BME280;10076;52.008;4.708;2023-07-28T04:02:12;100577.34;;;21.13;100.00
19831;BME280;10076;52.008;4.708;2023-07-28T04:04:37;100583.13;;;21.02;100.00
19831;BME280;10076;52.008;4.708;2023-07-28T04:07:03;100588.09;;;20.90;100.00
19831;BME280;10076;52.008;4.708;2023-07-28T04:09:29;100586.59;;;20.88;100.00
19831;BME280;10076;52.008;4.708;2023-07-28T04:11:54;100586.06;;;20.92;100.00
19831;BME280;10076;52.008;4.708;2023-07-28T04:14:19;100584.34;;;20.99;100.00
19831;BME280;10076;52.008;4.708;2023-07-28T04:16:45;100587.84;;;21.00;100.00
19831;BME280;10076;52.008;4.708;2023-07-28T04:19:10;100584.16;;;21.01;100.00
19831;BME280;10076;52.008;4.708;2023-07-28T04:21:36;100586.13;;;21.07;100.00
19831;BME280;10076;52.008;4.708;2023-07-28T04:24:06;100587.13;;;21.06;100.00
19831;BME280;10076;52.008;4.708;2023-07-28T04:26:32;100587.19;;;20.98;100.00
19831;BME280;10076;52.008;4.708;2023-07-28T04:28:57;100587.94;;;21.06;100.00
19831;BME280;10076;52.008;4.708;2023-07-28T04:31:23;100579.00;;;21.14;100.00
19831;BME280;10076;52.008;4.708;2023-07-28T04:33:48;100583.53;;;21.13;100.00
19831;BME280;10076;52.008;4.708;2023-07-28T04:36:13;100586.50;;;21.18;100.00
19831;BME280;10076;52.008;4.708;2023-07-28T04:38:39;100588.72;;;21.15;100.00
19831;BME280;10076;52.008;4.708;2023-07-28T04:41:04;100590.38;;;21.16;100.00
19831;BME280;10076;52.008;4.708;2023-07-28T04:43:30;100584.44;;;21.06;100.00
19831;BME280;10076;52.008;4.708;2023-07-28T04:45:55;100593.25;;;21.14;100.00
19831;BME280;10076;52.008;4.708;2023-07-28T04:48:21;100596.53;;;21.24;100.00
19831;BME280;10076;52.008;4.708;2023-07-28T04:50:46;100602.38;;;21.28;100.00
19831;BME280;10076;52.008;4.708;2023-07-28T04:53:14;100602.25;;;21.21;100.00
19831;BME280;10076;52.008;4.708;2023-07-28T04:55:40;100599.19;;;21.24;100.00
19831;BME280;10076;52.008;4.708;2023-07-28T04:58:05;100597.88;;;21.06;100.00
19831;BME280;10076;52.008;4.708;2023-07-28T05:00:31;100602.56;;;21.26;100.00
19831;BME280;10076;52.008;4.708;2023-07-28T05:02:56;100593.19;;;21.22;100.00
19831;BME280;10076;52.008;4.708;2023-07-28T05:05:22;100589.94;;;21.27;100.00
19831;BME280;10076;52.008;4.708;2023-07-28T05:07:48;100591.00;;;21.26;100.00
19831;BME280;10076;52.008;4.708;2023-07-28T05:10:13;100595.03;;;21.22;100.00
19831;BME280;10076;52.008;4.708;2023-07-28T05:12:38;100593.28;;;21.29;100.00
19831;BME280;10076;52.008;4.708;2023-07-28T05:15:05;100597.47;;;21.31;100.00
19831;BME280;10076;52.008;4.708;2023-07-28T05:17:30;100599.13;;;21.32;100.00
19831;BME280;10076;52.008;4.708;2023-07-28T05:19:56;100601.28;;;21.37;100.00
19831;BME280;10076;52.008;4.708;2023-07-28T05:22:21;100600.56;;;21.43;100.00
19831;BME280;10076;52.008;4.708;2023-07-28T05:24:47;100606.56;;;21.45;100.00
19831;BME280;10076;52.008;4.708;2023-07-28T05:27:12;100599.50;;;21.44;100.00
19831;BME280;10076;52.008;4.708;2023-07-28T05:29:38;100601.84;;;21.47;100.00
19831;BME280;10076;52.008;4.708;2023-07-28T05:32:04;100599.13;;;21.32;100.00
19831;BME280;10076;52.008;4.708;2023-07-28T05:34:29;100606.00;;;21.35;100.00
19831;BME280;10076;52.008;4.708;2023-07-28T05:36:55;100609.63;;;21.42;100.00
19831;BME280;10076;52.008;4.708;2023-07-28T05:39:21;100614.34;;;21.62;100.00
19831;BME280;10076;52.008;4.708;2023-07-28T05:41:46;100607.00;;;21.56;100.00
19831;BME280;10076;52.008;4.708;2023-07-28T05:44:11;100618.50;;;21.64;100.00
19831;BME280;10076;52.008;4.708;2023-07-28T05:46:37;100605.88;;;21.65;100.00
19831;BME280;10076;52.008;4.708;2023-07-28T05:49:02;100620.63;;;21.55;100.00
19831;BME280;10076;52.008;4.708;2023-07-28T05:51:28;100614.63;;;21.81;100.00
19831;BME280;10076;52.008;4.708;2023-07-28T05:53:54;100617.41;;;21.88;100.00
19831;BME280;10076;52.008;4.708;2023-07-28T05:56:20;100612.75;;;21.82;100.00
19831;BME280;10076;52.008;4.708;2023-07-28T05:58:49;100620.66;;;21.83;100.00
19831;BME280;10076;52.008;4.708;2023-07-28T06:01:15;100619.72;;;21.76;100.00
19831;BME280;10076;52.008;4.708;2023-07-28T06:03:40;100619.25;;;21.73;100.00
19831;BME280;10076;52.008;4.708;2023-07-28T06:06:05;100629.50;;;21.55;100.00
19831;BME280;10076;52.008;4.708;2023-07-28T06:08:31;100635.84;;;21.76;100.00
19831;BME280;10076;52.008;4.708;2023-07-28T06:10:56;100631.94;;;21.64;100.00
19831;BME280;10076;52.008;4.708;2023-07-28T06:13:22;100629.88;;;21.66;100.00
19831;BME280;10076;52.008;4.708;2023-07-28T06:15:47;100637.88;;;21.74;100.00
19831;BME280;10076;52.008;4.708;2023-07-28T06:18:13;100636.59;;;21.70;100.00
19831;BME280;10076;52.008;4.708;2023-07-28T06:20:42;100643.03;;;21.61;100.00
19831;BME280;10076;52.008;4.708;2023-07-28T06:23:07;100658.56;;;21.88;100.00
19831;BME280;10076;52.008;4.708;2023-07-28T06:25:33;100649.47;;;21.75;100.00
19831;BME280;10076;52.008;4.708;2023-07-28T06:27:58;100657.56;;;21.75;100.00
19831;BME280;10076;52.008;4.708;2023-07-28T06:30:23;100652.44;;;21.65;100.00
19831;BME280;10076;52.008;4.708;2023-07-28T06:32:49;100655.88;;;21.74;100.00
19831;BME280;10076;52.008;4.708;2023-07-28T06:35:14;100669.31;;;21.74;100.00
19831;BME280;10076;52.008;4.708;2023-07-28T06:37:40;100671.75;;;21.83;100.00
19831;BME280;10076;52.008;4.708;2023-07-28T06:40:06;100667.25;;;21.76;100.00
19831;BME280;10076;52.008;4.708;2023-07-28T06:42:34;100675.34;;;21.90;100.00
19831;BME280;10076;52.008;4.708;2023-07-28T06:44:59;100669.88;;;22.13;100.00
19831;BME280;10076;52.008;4.708;2023-07-28T06:47:25;100661.56;;;22.08;100.00
19831;BME280;10076;52.008;4.708;2023-07-28T06:49:50;100665.91;;;22.23;100.00
19831;BME280;10076;52.008;4.708;2023-07-28T06:52:16;100671.03;;;22.18;100.00
19831;BME280;10076;52.008;4.708;2023-07-28T06:54:41;100676.22;;;22.34;100.00
19831;BME280;10076;52.008;4.708;2023-07-28T06:57:07;100668.22;;;22.40;100.00
19831;BME280;10076;52.008;4.708;2023-07-28T06:59:32;100672.41;;;22.28;100.00
19831;BME280;10076;52.008;4.708;2023-07-28T07:01:58;100679.91;;;22.47;100.00
19831;BME280;10076;52.008;4.708;2023-07-28T07:04:23;100670.72;;;22.42;100.00
19831;BME280;10076;52.008;4.708;2023-07-28T07:06:48;100677.91;;;22.35;100.00
19831;BME280;10076;52.008;4.708;2023-07-28T07:09:14;100686.44;;;22.38;100.00
19831;BME280;10076;52.008;4.708;2023-07-28T07:11:40;100691.03;;;22.44;100.00
19831;BME280;10076;52.008;4.708;2023-07-28T07:14:06;100688.81;;;22.33;100.00
19831;BME280;10076;52.008;4.708;2023-07-28T07:16:31;100691.63;;;22.40;100.00
19831;BME280;10076;52.008;4.708;2023-07-28T07:18:57;100691.72;;;22.32;100.00
19831;BME280;10076;52.008;4.708;2023-07-28T07:21:23;100699.59;;;22.33;100.00
19831;BME280;10076;52.008;4.708;2023-07-28T07:23:49;100699.94;;;22.16;100.00
19831;BME280;10076;52.008;4.708;2023-07-28T07:26:26;100705.06;;;22.11;100.00
19831;BME280;10076;52.008;4.708;2023-07-28T07:28:56;100702.25;;;22.19;100.00
19831;BME280;10076;52.008;4.708;2023-07-28T07:31:21;100708.09;;;22.23;100.00
19831;BME280;10076;52.008;4.708;2023-07-28T07:33:46;100709.25;;;22.28;100.00
19831;BME280;10076;52.008;4.708;2023-07-28T07:36:13;100705.84;;;22.34;100.00
19831;BME280;10076;52.008;4.708;2023-07-28T07:38:39;100705.16;;;22.32;100.00
19831;BME280;10076;52.008;4.708;2023-07-28T07:41:06;100709.72;;;22.31;100.00
19831;BME280;10076;52.008;4.708;2023-07-28T07:43:31;100721.78;;;22.50;100.00
19831;BME280;10076;52.008;4.708;2023-07-28T07:45:56;100717.88;;;22.52;100.00
19831;BME280;10076;52.008;4.708;2023-07-28T07:48:22;100718.41;;;22.62;100.00
19831;BME280;10076;52.008;4.708;2023-07-28T07:50:47;100713.69;;;22.50;100.00
19831;BME280;10076;52.008;4.708;2023-07-28T07:53:13;100719.78;;;22.73;100.00
19831;BME280;10076;52.008;4.708;2023-07-28T07:55:38;100720.06;;;22.78;100.00
19831;BME280;10076;52.008;4.708;2023-07-28T07:58:03;100712.41;;;22.95;100.00
19831;BME280;10076;52.008;4.708;2023-07-28T08:00:29;100714.63;;;23.06;100.00
19831;BME280;10076;52.008;4.708;2023-07-28T08:02:54;100724.59;;;23.27;100.00
19831;BME280;10076;52.008;4.708;2023-07-28T08:05:20;100718.69;;;23.38;100.00
19831;BME280;10076;52.008;4.708;2023-07-28T08:07:46;100721.97;;;23.54;100.00
19831;BME280;10076;52.008;4.708;2023-07-28T08:10:12;100723.34;;;23.92;100.00
19831;BME280;10076;52.008;4.708;2023-07-28T08:12:38;100721.97;;;24.02;100.00
19831;BME280;10076;52.008;4.708;2023-07-28T08:15:04;100722.75;;;24.24;100.00
19831;BME280;10076;52.008;4.708;2023-07-28T08:17:29;100719.25;;;24.23;100.00
19831;BME280;10076;52.008;4.708;2023-07-28T08:19:54;100720.88;;;24.24;100.00
19831;BME280;10076;52.008;4.708;2023-07-28T08:22:20;100714.91;;;24.35;100.00
19831;BME280;10076;52.008;4.708;2023-07-28T08:24:45;100715.34;;;24.38;100.00
19831;BME280;10076;52.008;4.708;2023-07-28T08:27:11;100717.13;;;24.52;100.00
19831;BME280;10076;52.008;4.708;2023-07-28T08:29:36;100723.88;;;24.76;100.00
19831;BME280;10076;52.008;4.708;2023-07-28T08:32:01;100718.09;;;24.72;100.00
19831;BME280;10076;52.008;4.708;2023-07-28T08:34:27;100720.06;;;24.57;100.00
19831;BME280;10076;52.008;4.708;2023-07-28T08:36:53;100724.22;;;24.53;100.00
19831;BME280;10076;52.008;4.708;2023-07-28T08:39:18;100721.50;;;24.20;100.00
19831;BME280;10076;52.008;4.708;2023-07-28T08:41:43;100723.78;;;24.50;100.00
19831;BME280;10076;52.008;4.708;2023-07-28T08:44:09;100732.38;;;24.66;100.00
19831;BME280;10076;52.008;4.708;2023-07-28T08:46:34;100727.38;;;24.70;100.00
19831;BME280;10076;52.008;4.708;2023-07-28T08:49:01;100731.91;;;24.56;100.00
19831;BME280;10076;52.008;4.708;2023-07-28T08:51:26;100732.38;;;24.66;100.00
19831;BME280;10076;52.008;4.708;2023-07-28T08:53:52;100729.13;;;24.77;100.00
19831;BME280;10076;52.008;4.708;2023-07-28T08:56:20;100729.91;;;24.71;100.00
19831;BME280;10076;52.008;4.708;2023-07-28T08:58:46;100734.00;;;24.54;100.00
19831;BME280;10076;52.008;4.708;2023-07-28T09:01:11;100740.28;;;24.68;100.00
19831;BME280;10076;52.008;4.708;2023-07-28T09:03:39;100732.47;;;24.92;100.00
19831;BME280;10076;52.008;4.708;2023-07-28T09:06:07;100735.50;;;25.10;100.00
19831;BME280;10076;52.008;4.708;2023-07-28T09:08:36;100731.56;;;25.19;100.00
19831;BME280;10076;52.008;4.708;2023-07-28T09:11:05;100734.50;;;25.37;100.00
19831;BME280;10076;52.008;4.708;2023-07-28T09:13:40;100737.03;;;25.45;100.00
19831;BME280;10076;52.008;4.708;2023-07-28T09:16:18;100737.25;;;25.43;100.00
19831;BME280;10076;52.008;4.708;2023-07-28T09:18:44;100738.72;;;25.72;100.00
19831;BME280;10076;52.008;4.708;2023-07-28T09:21:19;100731.66;;;25.83;100.00
19831;BME280;10076;52.008;4.708;2023-07-28T09:23:47;100734.59;;;25.76;100.00
19831;BME280;10076;52.008;4.708;2023-07-28T09:26:14;100744.13;;;25.72;100.00
19831;BME280;10076;52.008;4.708;2023-07-28T09:28:41;100742.50;;;25.90;100.00
19831;BME280;10076;52.008;4.708;2023-07-28T09:31:07;100737.91;;;26.03;100.00
19831;BME280;10076;52.008;4.708;2023-07-28T09:33:35;100742.06;;;26.12;100.00
19831;BME280;10076;52.008;4.708;2023-07-28T09:36:09;100745.16;;;26.35;100.00
19831;BME280;10076;52.008;4.708;2023-07-28T09:38:40;100751.84;;;26.13;100.00
19831;BME280;10076;52.008;4.708;2023-07-28T09:41:07;100750.81;;;25.88;100.00
19831;BME280;10076;52.008;4.708;2023-07-28T09:43:38;100749.19;;;25.87;100.00
19831;BME280;10076;52.008;4.708;2023-07-28T09:46:06;100753.31;;;25.96;100.00
19831;BME280;10076;52.008;4.708;2023-07-28T09:48:33;100751.06;;;25.93;100.00
19831;BME280;10076;52.008;4.708;2023-07-28T09:51:02;100749.19;;;25.87;100.00
19831;BME280;10076;52.008;4.708;2023-07-28T09:53:34;100755.34;;;25.62;100.00
19831;BME280;10076;52.008;4.708;2023-07-28T09:56:01;100755.00;;;25.84;100.00
19831;BME280;10076;52.008;4.708;2023-07-28T09:58:31;100763.47;;;25.56;100.00
19831;BME280;10076;52.008;4.708;2023-07-28T10:00:59;100759.72;;;25.57;100.00
19831;BME280;10076;52.008;4.708;2023-07-28T10:03:25;100760.72;;;25.43;100.00
19831;BME280;10076;52.008;4.708;2023-07-28T10:05:51;100760.69;;;25.17;100.00
19831;BME280;10076;52.008;4.708;2023-07-28T10:08:16;100757.63;;;25.52;100.00
19831;BME280;10076;52.008;4.708;2023-07-28T10:10:42;100764.09;;;25.58;100.00
19831;BME280;10076;52.008;4.708;2023-07-28T10:13:19;100765.97;;;25.64;100.00
19831;BME280;10076;52.008;4.708;2023-07-28T10:15:46;100769.66;;;25.30;100.00
19831;BME280;10076;52.008;4.708;2023-07-28T10:18:13;100773.16;;;25.18;100.00
19831;BME280;10076;52.008;4.708;2023-07-28T10:20:40;100773.97;;;25.18;100.00
19831;BME280;10076;52.008;4.708;2023-07-28T10:23:16;100775.44;;;25.14;100.00
19831;BME280;10076;52.008;4.708;2023-07-28T10:25:43;100773.06;;;25.05;100.00
19831;BME280;10076;52.008;4.708;2023-07-28T10:28:29;100769.28;;;24.93;100.00
19831;BME280;10076;52.008;4.708;2023-07-28T10:30:57;100769.72;;;25.03;100.00
19831;BME280;10076;52.008;4.708;2023-07-28T10:33:30;100778.56;;;25.18;100.00
19831;BME280;10076;52.008;4.708;2023-07-28T10:35:58;100778.84;;;24.96;100.00
19831;BME280;10076;52.008;4.708;2023-07-28T10:38:31;100774.41;;;24.82;100.00
19831;BME280;10076;52.008;4.708;2023-07-28T10:41:17;100772.34;;;24.77;100.00
19831;BME280;10076;52.008;4.708;2023-07-28T10:43:45;100774.97;;;24.64;100.00
19831;BME280;10076;52.008;4.708;2023-07-28T10:46:14;100784.50;;;24.60;100.00
19831;BME280;10076;52.008;4.708;2023-07-28T10:48:42;100778.81;;;24.49;100.00
19831;BME280;10076;52.008;4.708;2023-07-28T10:51:09;100784.13;;;24.70;100.00
19831;BME280;10076;52.008;4.708;2023-07-28T10:53:34;100789.28;;;24.65;100.00
19831;BME280;10076;52.008;4.708;2023-07-28T10:56:03;100778.31;;;24.73;100.00
19831;BME280;10076;52.008;4.708;2023-07-28T10:58:31;100791.25;;;24.77;100.00
19831;BME280;10076;52.008;4.708;2023-07-28T11:00:56;100783.94;;;25.11;100.00
19831;BME280;10076;52.008;4.708;2023-07-28T11:03:22;100791.44;;;25.16;100.00
19831;BME280;10076;52.008;4.708;2023-07-28T11:05:49;100789.13;;;25.13;100.00
19831;BME280;10076;52.008;4.708;2023-07-28T11:08:16;100794.47;;;25.00;100.00
19831;BME280;10076;52.008;4.708;2023-07-28T11:10:41;100793.03;;;25.04;100.00
19831;BME280;10076;52.008;4.708;2023-07-28T11:13:07;100795.72;;;24.98;100.00
19831;BME280;10076;52.008;4.708;2023-07-28T11:15:35;100791.72;;;24.94;100.00
19831;BME280;10076;52.008;4.708;2023-07-28T11:18:03;100798.31;;;25.18;100.00
19831;BME280;10076;52.008;4.708;2023-07-28T11:20:28;100797.56;;;25.44;100.00
19831;BME280;10076;52.008;4.708;2023-07-28T11:22:59;100792.81;;;25.59;100.00
19831;BME280;10076;52.008;4.708;2023-07-28T11:25:27;100793.69;;;25.79;100.00
19831;BME280;10076;52.008;4.708;2023-07-28T11:27:53;100783.94;;;25.84;100.00
19831;BME280;10076;52.008;4.708;2023-07-28T11:30:22;100790.16;;;26.23;100.00
19831;BME280;10076;52.008;4.708;2023-07-28T11:32:51;100791.44;;;26.47;100.00
19831;BME280;10076;52.008;4.708;2023-07-28T11:35:21;100789.13;;;26.31;100.00
19831;BME280;10076;52.008;4.708;2023-07-28T11:37:49;100788.91;;;26.26;100.00
19831;BME280;10076;52.008;4.708;2023-07-28T11:40:17;100804.72;;;26.67;100.00
19831;BME280;10076;52.008;4.708;2023-07-28T11:42:53;100796.94;;;26.97;100.00
19831;BME280;10076;52.008;4.708;2023-07-28T11:45:20;100789.91;;;27.33;100.00
19831;BME280;10076;52.008;4.708;2023-07-28T11:47:58;100794.84;;;26.99;100.00
19831;BME280;10076;52.008;4.708;2023-07-28T11:50:26;100790.94;;;27.76;100.00
19831;BME280;10076;52.008;4.708;2023-07-28T11:52:51;100792.94;;;28.60;100.00
19831;BME280;10076;52.008;4.708;2023-07-28T11:55:18;100798.94;;;29.51;100.00
19831;BME280;10076;52.008;4.708;2023-07-28T11:57:43;100798.94;;;30.44;100.00
19831;BME280;10076;52.008;4.708;2023-07-28T12:00:09;100799.31;;;31.21;100.00
19831;BME280;10076;52.008;4.708;2023-07-28T12:02:37;100805.72;;;30.53;100.00
19831;BME280;10076;52.008;4.708;2023-07-28T12:05:12;100802.53;;;29.92;100.00
19831;BME280;10076;52.008;4.708;2023-07-28T12:07:37;100801.84;;;29.20;100.00
19831;BME280;10076;52.008;4.708;2023-07-28T12:10:03;100797.41;;;29.08;100.00
19831;BME280;10076;52.008;4.708;2023-07-28T12:12:39;100810.91;;;29.50;100.00
19831;BME280;10076;52.008;4.708;2023-07-28T12:15:19;100807.41;;;28.71;100.00
19831;BME280;10076;52.008;4.708;2023-07-28T12:20:38;100805.88;;;27.47;100.00
19831;BME280;10076;52.008;4.708;2023-07-28T12:23:05;100809.28;;;27.36;100.00
19831;BME280;10076;52.008;4.708;2023-07-28T12:25:31;100799.09;;;27.69;100.00
19831;BME280;10076;52.008;4.708;2023-07-28T12:27:57;100809.53;;;27.28;100.00
19831;BME280;10076;52.008;4.708;2023-07-28T12:30:23;100814.34;;;27.26;100.00
19831;BME280;10076;52.008;4.708;2023-07-28T12:32:48;100804.03;;;26.98;100.00
19831;BME280;10076;52.008;4.708;2023-07-28T12:35:14;100804.88;;;26.98;100.00
19831;BME280;10076;52.008;4.708;2023-07-28T12:37:39;100803.78;;;27.06;100.00
19831;BME280;10076;52.008;4.708;2023-07-28T12:40:08;100813.72;;;27.24;100.00